Time;durP1;ratioP1;P1;durP2;ratioP2;P2;SDS_P1;SDS_P2;PMS_P1;PMS_P2;Temp;Humidity;BMP_temperature;BMP_pressure;BME280_temperature;BME280_humidity;BME280_pressure;Samples;Min_cycle;Max_cycle;Signal;HPM_P1;HPM_P2
2021/09/04 00:00:44;;;;;;;11.30;10.23;;;15.20;99.90;;;;;;5014803;28;20187;-61
2021/09/04 00:03:10;;;;;;;12.57;11.40;;;15.10;99.90;;;;;;5014717;28;20206;-62
2021/09/04 00:05:35;;;;;;;13.17;10.20;;;15.00;99.90;;;;;;5015198;28;20183;-62
2021/09/04 00:08:01;;;;;;;12.33;10.63;;;15.00;99.90;;;;;;5014752;28;20277;-62
2021/09/04 00:10:26;;;;;;;13.00;11.70;;;15.00;99.90;;;;;;5014528;28;20186;-60
2021/09/04 00:12:52;;;;;;;11.33;10.33;;;14.90;99.90;;;;;;5014754;28;20175;-62
2021/09/04 00:15:18;;;;;;;11.20;10.10;;;14.90;99.90;;;;;;5014616;28;20178;-62
2021/09/04 00:17:43;;;;;;;11.87;10.77;;;14.90;99.90;;;;;;5013986;28;20229;-62
2021/09/04 00:20:10;;;;;;;13.33;11.93;;;15.00;99.90;;;;;;5014297;28;20636;-62
2021/09/04 00:22:35;;;;;;;12.83;11.73;;;14.90;99.90;;;;;;5014441;28;20206;-61
2021/09/04 00:25:01;;;;;;;12.97;11.73;;;14.90;99.90;;;;;;5014652;28;20785;-60
2021/09/04 00:27:27;;;;;;;12.90;11.60;;;14.90;99.90;;;;;;5014441;28;20202;-62
2021/09/04 00:29:52;;;;;;;12.90;10.63;;;14.70;99.90;;;;;;5014097;28;20536;-60
2021/09/04 00:32:18;;;;;;;11.80;10.77;;;14.80;99.90;;;;;;5014334;28;20175;-62
2021/09/04 00:34:43;;;;;;;15.13;13.53;;;14.70;99.90;;;;;;5014305;28;20183;-62
2021/09/04 00:37:09;;;;;;;16.60;14.87;;;14.70;99.90;;;;;;5014171;28;20199;-61
2021/09/04 00:39:34;;;;;;;13.40;12.00;;;14.70;99.90;;;;;;5013960;28;20171;-61
2021/09/04 00:42:00;;;;;;;13.70;11.70;;;14.70;99.90;;;;;;5014191;28;20232;-61
2021/09/04 00:44:26;;;;;;;12.27;11.07;;;14.60;99.90;;;;;;5014108;28;20179;-61
2021/09/04 00:47:00;;;;;;;13.17;11.97;;;14.60;99.90;;;;;;5013908;28;20255;-62
2021/09/04 00:49:25;;;;;;;13.27;11.97;;;14.60;99.90;;;;;;5013843;28;20182;-61
2021/09/04 00:51:51;;;;;;;13.53;11.67;;;14.70;99.90;;;;;;5013935;28;20422;-62
2021/09/04 00:54:16;;;;;;;11.43;10.23;;;14.60;99.90;;;;;;5013963;28;20534;-61
2021/09/04 00:56:43;;;;;;;12.53;11.30;;;14.60;99.90;;;;;;5013896;28;20186;-62
2021/09/04 00:59:09;;;;;;;14.23;11.83;;;14.60;99.90;;;;;;5013476;28;20199;-62
2021/09/04 01:01:35;;;;;;;14.43;12.40;;;14.60;99.90;;;;;;5013642;28;20434;-62
2021/09/04 01:04:01;;;;;;;13.73;12.10;;;14.60;99.90;;;;;;5013825;28;20484;-62
2021/09/04 01:06:27;;;;;;;12.17;11.07;;;14.60;99.90;;;;;;5013684;28;20422;-62
2021/09/04 01:08:53;;;;;;;14.40;13.00;;;14.50;99.90;;;;;;5013403;28;20245;-62
2021/09/04 01:11:19;;;;;;;13.70;12.40;;;14.30;99.90;;;;;;5013651;28;20426;-62
2021/09/04 01:13:44;;;;;;;14.30;10.93;;;14.30;99.90;;;;;;5013593;28;20179;-62
2021/09/04 01:16:10;;;;;;;13.30;12.00;;;14.20;99.90;;;;;;5013435;28;20264;-62
2021/09/04 01:18:36;;;;;;;13.00;11.37;;;14.30;99.90;;;;;;5013389;28;20567;-60
2021/09/04 01:21:03;;;;;;;21.60;12.30;;;14.30;99.90;;;;;;5013536;28;20426;-62
2021/09/04 01:23:29;;;;;;;13.37;12.07;;;14.30;99.90;;;;;;5013398;28;20226;-62
2021/09/04 01:25:56;;;;;;;12.10;10.87;;;14.40;99.90;;;;;;5013395;28;20424;-60
2021/09/04 01:28:22;;;;;;;16.60;12.07;;;14.40;99.90;;;;;;5012759;28;20690;-61
2021/09/04 01:30:49;;;;;;;14.20;12.80;;;14.30;99.90;;;;;;5012709;28;20916;-61
2021/09/04 01:33:15;;;;;;;11.70;10.30;;;14.30;99.90;;;;;;5013241;28;20462;-61
2021/09/04 01:35:41;;;;;;;12.77;11.47;;;14.20;99.90;;;;;;5013251;28;20951;-61
2021/09/04 01:38:07;;;;;;;15.60;11.70;;;14.10;99.90;;;;;;5012991;28;20480;-62
2021/09/04 01:40:32;;;;;;;13.50;12.07;;;14.00;99.90;;;;;;5012842;28;20429;-62
2021/09/04 01:42:58;;;;;;;15.33;11.17;;;14.10;99.90;;;;;;5012986;28;20359;-62
2021/09/04 01:45:23;;;;;;;12.47;11.17;;;14.00;99.90;;;;;;5012932;28;20171;-62
2021/09/04 01:47:49;;;;;;;14.20;12.23;;;14.00;99.90;;;;;;5013203;28;20199;-62
2021/09/04 01:50:15;;;;;;;13.87;12.47;;;14.00;99.90;;;;;;5012799;28;20257;-61
2021/09/04 01:52:43;;;;;;;11.37;10.30;;;14.10;99.90;;;;;;5013054;28;20198;-61
2021/09/04 01:55:10;;;;;;;12.33;10.47;;;14.00;99.90;;;;;;5012887;28;20426;-59
2021/09/04 01:57:36;;;;;;;12.37;11.00;;;14.10;99.90;;;;;;5012692;28;20449;-61
2021/09/04 02:00:06;;;;;;;12.47;11.17;;;14.00;99.90;;;;;;5012364;28;20787;-62
2021/09/04 02:02:32;;;;;;;12.83;10.93;;;13.80;99.90;;;;;;5012701;28;20330;-61
2021/09/04 02:04:57;;;;;;;12.30;11.00;;;13.80;99.90;;;;;;5012732;28;20925;-61
2021/09/04 02:07:23;;;;;;;13.60;10.00;;;13.80;99.90;;;;;;5012540;28;20199;-61
2021/09/04 02:09:48;;;;;;;12.60;11.30;;;13.90;99.90;;;;;;5012398;28;20166;-61
2021/09/04 02:12:14;;;;;;;13.40;10.77;;;13.90;99.90;;;;;;5012602;28;20181;-61
2021/09/04 02:14:40;;;;;;;11.67;10.50;;;13.90;99.90;;;;;;5012545;28;20199;-62
2021/09/04 02:17:05;;;;;;;11.97;10.70;;;13.90;99.90;;;;;;5012335;28;20191;-61
2021/09/04 02:19:31;;;;;;;11.33;10.17;;;13.90;99.90;;;;;;5012248;28;20171;-62
2021/09/04 02:21:56;;;;;;;12.93;11.63;;;13.90;99.90;;;;;;5012334;28;20194;-62
2021/09/04 02:24:22;;;;;;;12.60;10.20;;;13.70;99.90;;;;;;5012494;28;20232;-62
2021/09/04 02:26:47;;;;;;;10.30;9.23;;;13.70;99.90;;;;;;5012429;28;20162;-60
2021/09/04 02:29:13;;;;;;;12.50;11.20;;;13.70;99.90;;;;;;5011935;28;20668;-62
2021/09/04 02:31:38;;;;;;;10.57;9.50;;;13.80;99.90;;;;;;5012272;28;20688;-61
2021/09/04 02:34:04;;;;;;;12.50;11.33;;;13.70;99.90;;;;;;5012315;28;20174;-62
2021/09/04 02:36:29;;;;;;;11.77;10.57;;;13.70;99.90;;;;;;5012303;28;20166;-61
2021/09/04 02:38:55;;;;;;;15.03;10.50;;;13.60;99.90;;;;;;5011855;28;20206;-61
2021/09/04 02:41:21;;;;;;;10.90;9.90;;;13.60;99.90;;;;;;5012160;28;20175;-62
2021/09/04 02:43:46;;;;;;;12.70;10.93;;;13.60;99.90;;;;;;5010692;28;20214;-61
2021/09/04 02:46:12;;;;;;;11.20;10.00;;;13.60;99.90;;;;;;5012136;28;20178;-60
2021/09/04 02:48:37;;;;;;;10.47;9.47;;;13.60;99.90;;;;;;5011805;28;20197;-62
2021/09/04 02:51:03;;;;;;;10.53;9.43;;;13.60;99.90;;;;;;5012100;28;20218;-61
2021/09/04 02:53:29;;;;;;;12.43;9.83;;;13.60;99.90;;;;;;5012122;28;20199;-62
2021/09/04 02:55:54;;;;;;;10.30;9.23;;;13.60;99.90;;;;;;5012157;28;20622;-60
2021/09/04 02:58:20;;;;;;;10.40;9.17;;;13.60;99.90;;;;;;5011703;28;20202;-61
2021/09/04 03:00:45;;;;;;;11.40;10.10;;;13.70;99.90;;;;;;5011843;28;20179;-62
2021/09/04 03:03:11;;;;;;;13.40;10.13;;;13.60;99.90;;;;;;5011909;28;20203;-62
2021/09/04 03:05:37;;;;;;;12.03;10.40;;;13.50;99.90;;;;;;5012017;28;20548;-62
2021/09/04 03:08:03;;;;;;;10.60;9.60;;;13.50;99.90;;;;;;5010647;28;20680;-62
2021/09/04 03:10:29;;;;;;;19.33;10.30;;;13.50;99.90;;;;;;5011766;28;20176;-62
2021/09/04 03:12:56;;;;;;;10.03;9.10;;;13.50;99.90;;;;;;5011824;28;20845;-61
2021/09/04 03:15:21;;;;;;;10.47;9.57;;;13.50;99.90;;;;;;5012065;28;20421;-61
2021/09/04 03:17:47;;;;;;;9.47;8.67;;;13.50;99.90;;;;;;5011670;28;20838;-62
2021/09/04 03:20:13;;;;;;;10.70;9.63;;;13.40;99.90;;;;;;5011552;28;20740;-62
2021/09/04 03:22:39;;;;;;;11.87;10.37;;;13.40;99.90;;;;;;5011763;28;20541;-61
2021/09/04 03:25:05;;;;;;;13.33;8.80;;;13.40;99.90;;;;;;5011823;28;20172;-61
2021/09/04 03:27:32;;;;;;;11.77;10.57;;;13.30;99.90;;;;;;5011615;28;20623;-62
2021/09/04 03:29:58;;;;;;;11.20;10.10;;;13.30;99.90;;;;;;5011490;28;20438;-61
2021/09/04 03:32:24;;;;;;;10.63;9.33;;;13.30;99.90;;;;;;5011712;28;20421;-62
2021/09/04 03:34:50;;;;;;;10.60;9.60;;;13.30;99.90;;;;;;5011831;28;20422;-61
2021/09/04 03:37:16;;;;;;;11.00;9.80;;;13.30;99.90;;;;;;5011677;28;20437;-61
2021/09/04 03:39:41;;;;;;;10.37;9.13;;;13.30;99.90;;;;;;5011403;28;20789;-61
2021/09/04 03:42:07;;;;;;;11.07;10.07;;;13.40;99.90;;;;;;5011488;28;20194;-61
2021/09/04 03:44:32;;;;;;;11.87;9.50;;;13.40;99.90;;;;;;5011606;28;20660;-61
2021/09/04 03:46:58;;;;;;;9.83;8.77;;;13.40;99.90;;;;;;5011555;28;20174;-62
2021/09/04 03:49:23;;;;;;;10.90;9.90;;;13.30;99.90;;;;;;5011467;28;20663;-61
2021/09/04 03:51:49;;;;;;;10.50;9.43;;;13.20;99.90;;;;;;5011729;28;20614;-61
2021/09/04 03:54:14;;;;;;;10.63;9.63;;;13.20;99.90;;;;;;5015079;28;20179;-61
2021/09/04 03:56:40;;;;;;;11.00;9.90;;;13.10;99.90;;;;;;5014960;28;20233;-62
2021/09/04 03:59:06;;;;;;;9.60;8.70;;;13.10;99.90;;;;;;5014681;28;20225;-62
2021/09/04 04:01:31;;;;;;;10.60;9.50;;;13.10;99.90;;;;;;5014836;28;20171;-60
2021/09/04 04:03:57;;;;;;;10.07;9.10;;;13.10;99.90;;;;;;5014910;28;20171;-62
2021/09/04 04:06:22;;;;;;;10.33;9.33;;;13.20;99.90;;;;;;5014799;28;20254;-61
2021/09/04 04:08:48;;;;;;;10.53;9.57;;;13.20;99.90;;;;;;5014484;28;20266;-61
2021/09/04 04:11:13;;;;;;;11.60;9.43;;;13.10;99.90;;;;;;5014649;28;20179;-61
2021/09/04 04:13:40;;;;;;;11.20;10.20;;;13.10;99.90;;;;;;5014810;28;20179;-61
2021/09/04 04:16:06;;;;;;;10.53;9.60;;;13.10;99.90;;;;;;5014673;28;20577;-61
2021/09/04 04:18:33;;;;;;;9.83;8.63;;;13.10;99.90;;;;;;5014978;28;20779;-61
2021/09/04 04:20:59;;;;;;;10.10;9.03;;;13.20;99.90;;;;;;5014618;28;20449;-61
2021/09/04 04:23:25;;;;;;;10.17;9.17;;;13.20;99.90;;;;;;5014524;28;20461;-61
2021/09/04 04:25:52;;;;;;;10.23;9.20;;;13.20;99.90;;;;;;5014415;28;20432;-62
2021/09/04 04:28:18;;;;;;;9.93;9.03;;;13.20;99.90;;;;;;5014311;28;20445;-60
2021/09/04 04:30:44;;;;;;;12.20;10.13;;;13.20;99.90;;;;;;5014530;28;20840;-62
2021/09/04 04:33:09;;;;;;;10.63;9.73;;;13.00;99.90;;;;;;5014472;28;20178;-61
2021/09/04 04:35:35;;;;;;;10.73;9.70;;;13.00;99.90;;;;;;5014509;28;20436;-61
2021/09/04 04:38:00;;;;;;;14.43;10.70;;;13.00;99.90;;;;;;5014317;28;20354;-61
2021/09/04 04:40:26;;;;;;;10.73;9.73;;;13.00;99.90;;;;;;5013779;28;20183;-60
2021/09/04 04:42:51;;;;;;;11.83;10.60;;;12.90;99.90;;;;;;5014062;28;20207;-62
2021/09/04 04:45:17;;;;;;;13.00;11.70;;;12.80;99.90;;;;;;5014229;28;20207;-60
2021/09/04 04:47:42;;;;;;;13.60;11.20;;;12.90;99.90;;;;;;5014017;28;20281;-61
2021/09/04 04:50:08;;;;;;;17.97;15.57;;;12.60;99.90;;;;;;5013716;28;20566;-61
2021/09/04 04:52:34;;;;;;;14.60;13.00;;;13.00;99.90;;;;;;5014014;28;20170;-62
2021/09/04 04:54:59;;;;;;;14.97;11.90;;;12.90;99.90;;;;;;5013869;28;20418;-62
2021/09/04 04:57:25;;;;;;;12.00;10.90;;;13.00;99.90;;;;;;5013576;28;20287;-61
2021/09/04 04:59:50;;;;;;;16.17;11.50;;;13.00;99.90;;;;;;5013183;28;20205;-60
2021/09/04 05:02:16;;;;;;;15.13;12.63;;;13.00;99.90;;;;;;5013730;28;20206;-61
2021/09/04 05:04:41;;;;;;;14.13;12.77;;;13.00;99.90;;;;;;5012694;28;20175;-61
2021/09/04 05:07:07;;;;;;;11.80;10.80;;;12.90;99.90;;;;;;5013612;28;20179;-61
2021/09/04 05:09:32;;;;;;;13.20;12.00;;;13.00;99.90;;;;;;5013300;28;20181;-61
2021/09/04 05:11:58;;;;;;;14.00;12.60;;;13.10;99.90;;;;;;5013653;28;20190;-61
2021/09/04 05:14:23;;;;;;;13.13;11.87;;;13.10;99.90;;;;;;5013690;28;20167;-61
2021/09/04 05:16:49;;;;;;;18.90;17.00;;;13.20;99.90;;;;;;5013650;28;20195;-61
2021/09/04 05:19:14;;;;;;;14.37;13.03;;;13.20;99.90;;;;;;5013293;28;20198;-62
2021/09/04 05:21:40;;;;;;;14.30;12.90;;;13.30;99.90;;;;;;5013387;28;20254;-61
2021/09/04 05:24:05;;;;;;;14.07;12.07;;;13.30;99.90;;;;;;5013294;28;20648;-61
2021/09/04 05:26:31;;;;;;;13.03;11.73;;;13.50;99.90;;;;;;5013422;28;20611;-61
2021/09/04 05:28:56;;;;;;;13.73;10.77;;;13.60;99.90;;;;;;5012990;28;20283;-60
2021/09/04 05:31:22;;;;;;;13.57;12.17;;;13.80;99.90;;;;;;5013315;28;20209;-62
2021/09/04 05:33:47;;;;;;;10.53;9.63;;;13.90;99.90;;;;;;5013269;28;20179;-62
2021/09/04 05:36:13;;;;;;;13.17;11.97;;;14.10;99.90;;;;;;5013205;28;20175;-62
2021/09/04 05:38:38;;;;;;;11.90;10.80;;;14.20;99.90;;;;;;5012664;28;20602;-61
2021/09/04 05:41:06;;;;;;;11.00;9.90;;;14.30;99.90;;;;;;5013123;28;20177;-61
2021/09/04 05:43:31;;;;;;;12.10;11.00;;;14.40;99.90;;;;;;5012959;28;20195;-60
2021/09/04 05:45:57;;;;;;;13.30;11.90;;;14.40;99.90;;;;;;5013079;28;20483;-61
2021/09/04 05:48:22;;;;;;;12.77;11.53;;;14.60;99.90;;;;;;5012789;28;20253;-62
2021/09/04 05:50:48;;;;;;;15.13;12.57;;;14.70;99.90;;;;;;5012893;28;20193;-62
2021/09/04 05:53:13;;;;;;;14.43;13.00;;;14.90;99.90;;;;;;5013325;28;20178;-61
2021/09/04 05:55:39;;;;;;;13.90;12.60;;;14.90;99.90;;;;;;5012928;28;20170;-62
2021/09/04 05:58:05;;;;;;;15.17;13.77;;;14.90;99.90;;;;;;5012784;28;20198;-61
2021/09/04 06:00:30;;;;;;;15.80;14.20;;;15.00;99.90;;;;;;5012550;28;20167;-61
2021/09/04 06:02:56;;;;;;;14.40;13.00;;;14.90;99.90;;;;;;5012753;28;20194;-62
2021/09/04 06:05:21;;;;;;;13.17;11.87;;;15.00;99.90;;;;;;5012744;28;20648;-62
2021/09/04 06:07:47;;;;;;;14.97;13.47;;;15.10;99.90;;;;;;5012534;28;20214;-61
2021/09/04 06:10:13;;;;;;;14.47;12.97;;;15.10;99.90;;;;;;5012375;28;20167;-62
2021/09/04 06:12:38;;;;;;;14.70;13.30;;;15.30;99.90;;;;;;5012820;28;20661;-62
2021/09/04 06:15:05;;;;;;;13.67;12.27;;;15.50;99.90;;;;;;5012259;28;20179;-61
2021/09/04 06:17:31;;;;;;;14.80;12.27;;;15.70;99.90;;;;;;5012433;28;20210;-62
2021/09/04 06:19:56;;;;;;;15.00;13.60;;;15.90;99.90;;;;;;5012185;28;20433;-62
2021/09/04 06:22:22;;;;;;;13.17;11.97;;;16.00;99.90;;;;;;5012254;28;20202;-62
2021/09/04 06:24:47;;;;;;;13.37;12.07;;;16.20;99.90;;;;;;5012479;28;20167;-62
2021/09/04 06:27:13;;;;;;;14.80;13.40;;;16.20;99.90;;;;;;5012375;28;20679;-62
2021/09/04 06:29:39;;;;;;;13.30;11.83;;;16.50;99.90;;;;;;5012100;28;20167;-62
2021/09/04 06:32:05;;;;;;;13.40;12.20;;;16.60;99.90;;;;;;5012264;28;20744;-62
2021/09/04 06:34:31;;;;;;;13.50;12.10;;;16.70;99.90;;;;;;5012337;28;20171;-61
2021/09/04 06:36:57;;;;;;;13.10;11.80;;;16.90;99.90;;;;;;5012073;28;20421;-62
2021/09/04 06:39:22;;;;;;;13.00;11.67;;;17.20;99.90;;;;;;5011686;28;20484;-62
2021/09/04 06:41:48;;;;;;;12.80;11.40;;;17.10;99.90;;;;;;5012223;28;20170;-62
2021/09/04 06:44:13;;;;;;;12.50;11.20;;;17.30;99.90;;;;;;5012169;28;20174;-60
2021/09/04 06:46:39;;;;;;;14.43;12.93;;;17.50;99.90;;;;;;5012233;28;20266;-61
2021/09/04 06:49:04;;;;;;;16.60;13.40;;;17.60;99.90;;;;;;5011824;28;20195;-60
2021/09/04 06:51:30;;;;;;;14.43;12.40;;;17.70;99.90;;;;;;5011983;28;20687;-60
2021/09/04 06:53:56;;;;;;;28.30;24.10;;;18.20;99.90;;;;;;5012151;28;20258;-59
2021/09/04 06:56:21;;;;;;;16.00;12.90;;;18.50;99.90;;;;;;5012106;28;20664;-61
2021/09/04 06:58:47;;;;;;;13.97;12.70;;;18.50;99.90;;;;;;5011774;28;20545;-60
2021/09/04 07:01:12;;;;;;;13.63;12.23;;;18.50;99.90;;;;;;5012075;28;20224;-60
2021/09/04 07:03:38;;;;;;;14.30;12.20;;;18.80;99.90;;;;;;5011950;28;20672;-59
2021/09/04 07:06:04;;;;;;;13.80;11.83;;;19.20;99.90;;;;;;5011853;28;20258;-59
2021/09/04 07:08:30;;;;;;;13.83;12.60;;;19.50;99.90;;;;;;5010282;28;20206;-59
2021/09/04 07:10:56;;;;;;;13.33;11.97;;;19.60;99.90;;;;;;5011931;28;20421;-59
2021/09/04 07:13:21;;;;;;;14.23;13.00;;;19.50;99.90;;;;;;5010654;28;20418;-59
2021/09/04 07:15:47;;;;;;;13.20;11.90;;;19.30;99.90;;;;;;5011867;28;20174;-60
2021/09/04 07:18:12;;;;;;;12.80;11.60;;;19.20;99.90;;;;;;5011746;28;20214;-60
2021/09/04 07:20:38;;;;;;;12.90;11.00;;;19.40;99.90;;;;;;5011614;28;20167;-58
2021/09/04 07:23:04;;;;;;;14.97;12.50;;;19.80;99.90;;;;;;5007700;28;20209;-62
2021/09/04 07:25:29;;;;;;;13.47;12.13;;;19.90;99.90;;;;;;5006021;28;20180;-60
2021/09/04 07:27:55;;;;;;;13.00;11.80;;;20.20;99.90;;;;;;5008859;28;20195;-56
2021/09/04 07:30:20;;;;;;;13.23;12.00;;;20.70;99.90;;;;;;5011977;28;20178;-61
2021/09/04 07:32:46;;;;;;;12.77;10.80;;;20.80;99.90;;;;;;5012266;28;20306;-61
2021/09/04 07:35:11;;;;;;;13.30;12.10;;;21.00;99.90;;;;;;5012349;28;20205;-60
2021/09/04 07:37:37;;;;;;;13.07;11.97;;;21.50;99.90;;;;;;5012553;28;20216;-61
2021/09/04 07:40:04;;;;;;;12.27;11.07;;;21.50;99.90;;;;;;5012063;28;20191;-61
2021/09/04 07:42:29;;;;;;;12.70;11.50;;;21.30;99.90;;;;;;5014111;28;20230;-61
2021/09/04 07:44:55;;;;;;;12.53;11.30;;;21.30;99.90;;;;;;5013873;28;20496;-62
2021/09/04 07:47:21;;;;;;;13.03;11.83;;;21.60;99.90;;;;;;5015300;28;20199;-61
2021/09/04 07:49:46;;;;;;;12.57;11.23;;;21.90;99.90;;;;;;5014790;28;20203;-61
2021/09/04 07:52:12;;;;;;;11.83;10.60;;;21.90;99.90;;;;;;5015114;28;20170;-62
2021/09/04 07:54:37;;;;;;;15.17;10.47;;;22.30;99.90;;;;;;5015201;28;20175;-61
2021/09/04 07:57:03;;;;;;;13.50;11.50;;;22.60;99.90;;;;;;5015019;28;20254;-60
2021/09/04 07:59:28;;;;;;;11.70;10.60;;;23.10;99.90;;;;;;5014784;28;20266;-62
2021/09/04 08:01:54;;;;;;;11.80;10.70;;;23.40;99.90;;;;;;5014828;28;20544;-66
2021/09/04 08:04:20;;;;;;;11.53;10.20;;;23.50;99.90;;;;;;5014879;28;20167;-62
2021/09/04 08:06:45;;;;;;;11.00;9.70;;;23.70;99.90;;;;;;5014869;28;20175;-62
2021/09/04 08:09:11;;;;;;;10.83;9.70;;;23.80;99.90;;;;;;5014537;28;20195;-62
2021/09/04 08:11:36;;;;;;;10.80;9.70;;;24.20;99.90;;;;;;5014626;28;20189;-62
2021/09/04 08:14:02;;;;;;;12.53;11.33;;;24.50;99.90;;;;;;5013167;28;20194;-62
2021/09/04 08:16:28;;;;;;;14.43;11.17;;;24.50;99.90;;;;;;5013924;28;20175;-62
2021/09/04 08:18:53;;;;;;;11.90;10.80;;;24.50;99.90;;;;;;5013677;28;20280;-63
2021/09/04 08:21:19;;;;;;;10.83;9.83;;;25.00;99.90;;;;;;5014026;28;20178;-61
2021/09/04 08:23:44;;;;;;;11.43;10.43;;;25.30;99.90;;;;;;5014570;28;20206;-61
2021/09/04 08:26:10;;;;;;;12.93;11.77;;;25.70;99.90;;;;;;5014412;28;20290;-62
2021/09/04 08:28:35;;;;;;;25.10;15.93;;;25.40;99.90;;;;;;5014064;28;20195;-62
2021/09/04 08:31:01;;;;;;;10.17;9.20;;;25.80;99.90;;;;;;5014542;28;20167;-61
2021/09/04 08:33:26;;;;;;;8.73;8.03;;;26.00;99.90;;;;;;5013834;28;20175;-63
2021/09/04 08:35:52;;;;;;;9.83;8.87;;;26.40;99.40;;;;;;5014233;28;20186;-63
2021/09/04 08:38:17;;;;;;;12.43;10.53;;;26.40;98.90;;;;;;5013884;28;20245;-61
2021/09/04 08:40:46;;;;;;;12.40;9.47;;;26.60;98.40;;;;;;5014061;28;20213;-59
2021/09/04 08:43:12;;;;;;;10.47;9.47;;;26.80;97.40;;;;;;5014086;28;20242;-61
2021/09/04 08:45:38;;;;;;;9.07;8.27;;;26.50;96.60;;;;;;5014196;28;20414;-60
2021/09/04 08:48:06;;;;;;;8.33;7.53;;;26.90;96.30;;;;;;5014059;28;20853;-60
2021/09/04 08:50:32;;;;;;;8.07;7.33;;;27.30;95.90;;;;;;5013193;28;20414;-61
2021/09/04 08:52:58;;;;;;;8.60;7.90;;;27.80;95.30;;;;;;5014010;28;20429;-60
2021/09/04 08:55:23;;;;;;;10.47;8.23;;;27.70;94.20;;;;;;5013919;28;20182;-61
2021/09/04 08:57:49;;;;;;;8.83;8.00;;;27.60;94.10;;;;;;5013925;28;20577;-62
2021/09/04 09:00:28;;;;;;;8.93;8.03;;;27.70;94.90;;;;;;5013464;28;20178;-61
2021/09/04 09:02:53;;;;;;;7.73;7.03;;;28.10;94.20;;;;;;5013721;28;20230;-62
2021/09/04 09:05:19;;;;;;;7.57;6.97;;;28.60;92.90;;;;;;5013826;28;20519;-62
2021/09/04 09:07:46;;;;;;;7.63;7.03;;;29.20;92.60;;;;;;5013698;28;20560;-63
2021/09/04 09:10:21;;;;;;;7.00;6.50;;;29.80;90.70;;;;;;5013445;28;20541;-60
2021/09/04 09:12:47;;;;;;;8.23;7.53;;;30.30;89.00;;;;;;5013542;28;20986;-63
2021/09/04 09:15:21;;;;;;;7.93;7.03;;;30.30;87.40;;;;;;5013541;28;20418;-61
2021/09/04 09:18:11;;;;;;;9.37;8.57;;;30.60;84.10;;;;;;5013420;28;20624;-61
2021/09/04 09:20:38;;;;;;;7.07;6.47;;;30.60;81.10;;;;;;5013325;28;20417;-62
2021/09/04 09:23:07;;;;;;;6.37;5.73;;;30.90;76.60;;;;;;5013304;28;20513;-62
2021/09/04 09:25:35;;;;;;;8.00;7.40;;;31.30;75.50;;;;;;5013727;28;20418;-63
2021/09/04 09:28:10;;;;;;;7.17;6.57;;;31.60;73.20;;;;;;5013249;28;20430;-61
2021/09/04 09:30:48;;;;;;;7.57;6.97;;;31.80;71.60;;;;;;5013128;28;20421;-62
2021/09/04 09:33:19;;;;;;;6.30;5.80;;;31.80;72.10;;;;;;5013234;28;20520;-60
2021/09/04 09:35:47;;;;;;;7.50;6.90;;;32.70;69.60;;;;;;5013241;28;20509;-62
2021/09/04 09:38:15;;;;;;;6.40;5.90;;;32.80;66.70;;;;;;5013134;28;20887;-63
2021/09/04 09:40:41;;;;;;;6.20;5.70;;;33.10;65.70;;;;;;5012963;28;20945;-62
2021/09/04 09:43:24;;;;;;;6.97;5.37;;;33.90;64.60;;;;;;5013015;28;20548;-61
2021/09/04 09:45:53;;;;;;;11.17;7.20;;;34.70;60.20;;;;;;5013008;28;20534;-61
2021/09/04 09:48:32;;;;;;;7.10;6.53;;;35.10;57.00;;;;;;5012892;28;20450;-61
2021/09/04 09:51:00;;;;;;;6.60;5.40;;;34.40;57.20;;;;;;5012003;28;20937;-61
2021/09/04 09:53:26;;;;;;;6.60;6.20;;;34.30;56.20;;;;;;5012931;28;20421;-61
2021/09/04 09:55:54;;;;;;;6.93;6.43;;;34.60;56.90;;;;;;5011648;28;20978;-61
2021/09/04 09:58:21;;;;;;;7.50;5.63;;;34.40;57.10;;;;;;5012697;28;20441;-61
2021/09/04 10:00:49;;;;;;;6.33;5.83;;;34.80;54.00;;;;;;5012727;28;20452;-61
2021/09/04 10:03:15;;;;;;;6.57;5.97;;;33.70;53.60;;;;;;5012743;28;20484;-61
2021/09/04 10:05:41;;;;;;;6.83;6.13;;;33.90;55.10;;;;;;5012720;28;20493;-61
2021/09/04 10:08:07;;;;;;;6.37;5.97;;;33.70;53.40;;;;;;5012594;28;20489;-61
2021/09/04 10:10:40;;;;;;;5.73;5.30;;;34.60;53.70;;;;;;5012365;28;20449;-61
2021/09/04 10:13:06;;;;;;;6.07;5.57;;;35.60;52.20;;;;;;5012690;28;20697;-61
2021/09/04 10:15:35;;;;;;;6.03;5.63;;;36.30;51.00;;;;;;5012505;28;20521;-61
2021/09/04 10:18:04;;;;;;;4.77;4.47;;;35.70;49.90;;;;;;5012934;28;20210;-62
2021/09/04 10:20:31;;;;;;;5.97;5.57;;;36.10;49.60;;;;;;5012282;28;20965;-61
2021/09/04 10:23:09;;;;;;;7.20;5.70;;;37.20;48.10;;;;;;5012288;28;20515;-61
2021/09/04 10:25:35;;;;;;;5.93;5.50;;;37.30;45.70;;;;;;5011261;28;20439;-61
2021/09/04 10:28:02;;;;;;;5.77;4.70;;;37.20;44.30;;;;;;5012322;28;20528;-61
2021/09/04 10:30:38;;;;;;;5.20;4.80;;;37.40;44.00;;;;;;5012146;28;20253;-61
2021/09/04 10:33:13;;;;;;;4.83;4.53;;;35.50;44.30;;;;;;5012341;28;20468;-61
2021/09/04 10:35:40;;;;;;;5.60;5.20;;;36.10;44.90;;;;;;5012276;28;20421;-61
2021/09/04 10:38:27;;;;;;;4.70;4.40;;;36.50;44.20;;;;;;5012215;28;20433;-61
2021/09/04 10:41:14;;;;;;;5.53;5.20;;;37.00;43.30;;;;;;5012282;28;20480;-61
2021/09/04 10:44:06;;;;;;;6.03;5.50;;;36.40;42.90;;;;;;5012231;28;20463;-62
2021/09/04 10:46:32;;;;;;;5.40;5.00;;;36.90;43.50;;;;;;5008196;28;20425;-61
2021/09/04 10:49:03;;;;;;;5.67;5.17;;;37.70;43.00;;;;;;5011858;28;20469;-61
2021/09/04 10:51:44;;;;;;;5.30;5.00;;;37.50;42.80;;;;;;5012059;28;20413;-61
2021/09/04 10:54:09;;;;;;;5.67;5.27;;;38.40;41.10;;;;;;5012091;28;20431;-61
2021/09/04 10:56:37;;;;;;;5.77;5.37;;;37.50;40.70;;;;;;5012013;28;20504;-61
2021/09/04 10:59:03;;;;;;;6.20;5.80;;;37.70;42.50;;;;;;5011766;28;20202;-61
2021/09/04 11:01:38;;;;;;;5.80;5.30;;;37.70;41.80;;;;;;5013447;28;20916;-61
2021/09/04 11:04:04;;;;;;;6.70;6.20;;;37.50;42.10;;;;;;5015992;28;20198;-60
2021/09/04 11:06:30;;;;;;;5.30;4.90;;;38.30;40.80;;;;;;5016019;28;20418;-61
2021/09/04 11:08:56;;;;;;;5.37;4.87;;;36.80;41.00;;;;;;5015889;28;20791;-61
2021/09/04 11:11:31;;;;;;;6.23;5.80;;;37.20;40.60;;;;;;5015907;28;20421;-63
2021/09/04 11:14:21;;;;;;;5.40;5.03;;;38.10;40.00;;;;;;5015962;28;20163;-61
2021/09/04 11:16:54;;;;;;;6.03;5.60;;;37.10;39.30;;;;;;5015144;28;20485;-61
2021/09/04 11:19:32;;;;;;;5.03;4.73;;;37.90;39.40;;;;;;5016030;28;20849;-61
2021/09/04 11:22:10;;;;;;;5.67;5.13;;;38.50;38.20;;;;;;5015641;28;20484;-61
2021/09/04 11:24:41;;;;;;;5.17;4.77;;;38.80;38.40;;;;;;5015743;28;20414;-61
2021/09/04 11:27:15;;;;;;;4.70;4.40;;;39.70;37.20;;;;;;5015653;28;20424;-61
2021/09/04 11:29:48;;;;;;;5.00;4.70;;;40.70;37.10;;;;;;5015330;28;20421;-61
2021/09/04 11:32:16;;;;;;;5.90;5.50;;;41.40;36.20;;;;;;5015711;28;20421;-61
2021/09/04 11:34:46;;;;;;;4.70;4.40;;;40.90;36.10;;;;;;5015484;28;20429;-61
2021/09/04 11:37:29;;;;;;;5.10;4.70;;;41.00;35.70;;;;;;5015513;28;20442;-61
2021/09/04 11:40:00;;;;;;;6.47;6.07;;;40.80;35.50;;;;;;5015142;28;20421;-61
2021/09/04 11:42:29;;;;;;;6.80;5.40;;;41.00;35.50;;;;;;5015214;28;20558;-61
2021/09/04 11:45:21;;;;;;;4.27;4.07;;;40.70;33.80;;;;;;5015333;28;20780;-61
2021/09/04 11:47:50;;;;;;;5.60;5.20;;;39.90;35.70;;;;;;5015313;28;20442;-61
2021/09/04 11:50:27;;;;;;;6.80;6.20;;;39.00;35.50;;;;;;5014995;28;20930;-61
2021/09/04 11:52:53;;;;;;;5.60;5.20;;;38.20;36.10;;;;;;5015133;28;20919;-61
2021/09/04 11:55:24;;;;;;;5.67;5.37;;;39.40;35.10;;;;;;5015174;28;20422;-61
2021/09/04 11:57:56;;;;;;;5.07;4.67;;;40.80;33.90;;;;;;5015025;28;20441;-61
2021/09/04 12:00:26;;;;;;;5.97;5.57;;;40.60;32.70;;;;;;5014619;28;20428;-61
2021/09/04 12:02:55;;;;;;;5.23;4.90;;;39.80;32.50;;;;;;5014912;28;21121;-61
2021/09/04 12:05:28;;;;;;;5.20;4.80;;;39.50;32.90;;;;;;5015000;28;20600;-61
2021/09/04 12:08:00;;;;;;;4.93;4.63;;;39.80;32.30;;;;;;5013627;28;20438;-61
2021/09/04 12:10:29;;;;;;;4.33;4.00;;;40.70;31.40;;;;;;5014681;28;20421;-61
2021/09/04 12:12:57;;;;;;;5.60;5.20;;;40.30;32.30;;;;;;5014220;28;20425;-61
2021/09/04 12:15:24;;;;;;;5.23;4.93;;;39.30;33.30;;;;;;5014695;28;20430;-61
2021/09/04 12:17:55;;;;;;;4.90;4.50;;;40.40;32.90;;;;;;5013079;28;21074;-61
2021/09/04 12:20:39;;;;;;;5.50;5.10;;;41.80;32.10;;;;;;5014387;28;20418;-61
2021/09/04 12:23:25;;;;;;;5.13;4.73;;;42.90;31.50;;;;;;5014844;28;20866;-61
2021/09/04 12:25:52;;;;;;;4.80;4.50;;;42.50;31.60;;;;;;5014664;28;20418;-61
2021/09/04 12:28:23;;;;;;;4.83;4.53;;;42.10;32.20;;;;;;5014266;28;20936;-62
2021/09/04 12:31:15;;;;;;;4.77;4.37;;;42.30;31.60;;;;;;5013129;28;20421;-61
2021/09/04 12:33:49;;;;;;;6.10;5.03;;;43.00;30.30;;;;;;5014532;28;20422;-61
2021/09/04 12:36:16;;;;;;;5.13;4.73;;;44.20;29.90;;;;;;5014327;28;20492;-61